sensor_id;sensor_type;location;lat;lon;timestamp;pressure;altitude;pressure_sealevel;temperature;humidity
77323;BME280;66384;51.052;9.850;2023-02-28T00:01:45;99817.38;;;0.60;62.72
77323;BME280;66384;51.052;9.850;2023-02-28T00:04:14;99816.97;;;0.57;62.86
77323;BME280;66384;51.052;9.850;2023-02-28T00:06:43;99815.23;;;0.55;62.86
77323;BME280;66384;51.052;9.850;2023-02-28T00:09:13;99817.78;;;0.51;63.13
77323;BME280;66384;51.052;9.850;2023-02-28T00:11:42;99812.97;;;0.46;62.68
77323;BME280;66384;51.052;9.850;2023-02-28T00:14:11;99808.80;;;0.42;62.84
77323;BME280;66384;51.052;9.850;2023-02-28T00:16:40;99804.94;;;0.37;63.02
77323;BME280;66384;51.052;9.850;2023-02-28T00:19:10;99806.15;;;0.33;62.68
77323;BME280;66384;51.052;9.850;2023-02-28T00:21:41;99808.92;;;0.32;62.51
77323;BME280;66384;51.052;9.850;2023-02-28T00:24:10;99809.00;;;0.29;62.60
77323;BME280;66384;51.052;9.850;2023-02-28T00:26:40;99803.98;;;0.26;62.91
77323;BME280;66384;51.052;9.850;2023-02-28T00:29:09;99802.46;;;0.21;62.67
77323;BME280;66384;51.052;9.850;2023-02-28T00:31:38;99803.53;;;0.14;62.78
77323;BME280;66384;51.052;9.850;2023-02-28T00:34:08;99805.07;;;0.12;63.36
77323;BME280;66384;51.052;9.850;2023-02-28T00:36:37;99808.73;;;0.14;63.59
77323;BME280;66384;51.052;9.850;2023-02-28T00:39:06;99807.73;;;0.14;63.70
77323;BME280;66384;51.052;9.850;2023-02-28T00:41:36;99805.53;;;0.14;63.49
77323;BME280;66384;51.052;9.850;2023-02-28T00:44:05;99804.40;;;0.09;63.45
77323;BME280;66384;51.052;9.850;2023-02-28T00:46:34;99802.24;;;0.07;63.82
77323;BME280;66384;51.052;9.850;2023-02-28T00:49:04;99803.84;;;0.08;63.62
77323;BME280;66384;51.052;9.850;2023-02-28T00:51:33;99802.83;;;0.08;63.72
77323;BME280;66384;51.052;9.850;2023-02-28T00:54:02;99806.71;;;0.10;63.58
77323;BME280;66384;51.052;9.850;2023-02-28T00:56:32;99811.52;;;0.11;63.75
77323;BME280;66384;51.052;9.850;2023-02-28T00:59:01;99808.33;;;0.11;63.57
77323;BME280;66384;51.052;9.850;2023-02-28T01:01:30;99810.98;;;0.12;63.03
77323;BME280;66384;51.052;9.850;2023-02-28T01:04:00;99805.66;;;0.12;62.95
77323;BME280;66384;51.052;9.850;2023-02-28T01:06:29;99806.95;;;0.10;62.73
77323;BME280;66384;51.052;9.850;2023-02-28T01:08:59;99802.35;;;0.08;63.03
77323;BME280;66384;51.052;9.850;2023-02-28T01:11:29;99799.17;;;0.07;62.87
77323;BME280;66384;51.052;9.850;2023-02-28T01:13:58;99801.05;;;0.07;62.67
77323;BME280;66384;51.052;9.850;2023-02-28T01:16:28;99800.20;;;0.05;62.38
77323;BME280;66384;51.052;9.850;2023-02-28T01:18:57;99800.10;;;0.04;62.63
77323;BME280;66384;51.052;9.850;2023-02-28T01:21:26;99801.29;;;0.04;62.45
77323;BME280;66384;51.052;9.850;2023-02-28T01:23:58;99800.39;;;0.03;62.31
77323;BME280;66384;51.052;9.850;2023-02-28T01:26:28;99797.45;;;0.05;62.26
77323;BME280;66384;51.052;9.850;2023-02-28T01:28:57;99799.66;;;0.06;62.08
77323;BME280;66384;51.052;9.850;2023-02-28T01:31:27;99800.20;;;0.07;62.14
77323;BME280;66384;51.052;9.850;2023-02-28T01:33:56;99800.95;;;0.10;62.15
77323;BME280;66384;51.052;9.850;2023-02-28T01:36:25;99799.13;;;0.12;62.18
77323;BME280;66384;51.052;9.850;2023-02-28T01:38:55;99796.52;;;0.15;62.31
77323;BME280;66384;51.052;9.850;2023-02-28T01:41:26;99795.48;;;0.17;61.92
77323;BME280;66384;51.052;9.850;2023-02-28T01:44:07;99795.39;;;0.18;62.12
77323;BME280;66384;51.052;9.850;2023-02-28T01:46:56;99794.73;;;0.20;62.03
77323;BME280;66384;51.052;9.850;2023-02-28T01:49:25;99790.35;;;0.22;61.72
77323;BME280;66384;51.052;9.850;2023-02-28T01:51:56;99789.54;;;0.25;62.05
77323;BME280;66384;51.052;9.850;2023-02-28T01:54:28;99786.35;;;0.27;61.70
77323;BME280;66384;51.052;9.850;2023-02-28T01:57:00;99785.02;;;0.30;62.10
77323;BME280;66384;51.052;9.850;2023-02-28T01:59:33;99784.70;;;0.32;61.68
77323;BME280;66384;51.052;9.850;2023-02-28T02:02:05;99785.20;;;0.32;61.90
77323;BME280;66384;51.052;9.850;2023-02-28T02:04:39;99782.14;;;0.31;61.74
77323;BME280;66384;51.052;9.850;2023-02-28T02:07:12;99779.47;;;0.30;61.35
77323;BME280;66384;51.052;9.850;2023-02-28T02:09:41;99776.07;;;0.32;61.62
77323;BME280;66384;51.052;9.850;2023-02-28T02:12:20;99778.79;;;0.34;61.78
77323;BME280;66384;51.052;9.850;2023-02-28T02:15:02;99776.76;;;0.34;61.71
77323;BME280;66384;51.052;9.850;2023-02-28T02:17:38;99776.91;;;0.35;61.54
77323;BME280;66384;51.052;9.850;2023-02-28T02:20:38;99774.08;;;0.36;61.60
77323;BME280;66384;51.052;9.850;2023-02-28T02:29:30;99772.16;;;0.37;61.75
77323;BME280;66384;51.052;9.850;2023-02-28T02:32:20;99767.98;;;0.38;61.38
77323;BME280;66384;51.052;9.850;2023-02-28T02:35:03;99770.61;;;0.39;61.52
77323;BME280;66384;51.052;9.850;2023-02-28T02:37:42;99768.23;;;0.41;61.63
77323;BME280;66384;51.052;9.850;2023-02-28T02:40:18;99769.35;;;0.42;61.54
77323;BME280;66384;51.052;9.850;2023-02-28T02:42:52;99766.55;;;0.43;61.36
77323;BME280;66384;51.052;9.850;2023-02-28T02:45:28;99770.73;;;0.44;61.31
77323;BME280;66384;51.052;9.850;2023-02-28T02:48:06;99770.70;;;0.46;61.40
77323;BME280;66384;51.052;9.850;2023-02-28T02:50:40;99771.82;;;0.48;61.01
77323;BME280;66384;51.052;9.850;2023-02-28T02:53:12;99769.84;;;0.49;61.03
77323;BME280;66384;51.052;9.850;2023-02-28T02:55:46;99769.98;;;0.50;61.11
77323;BME280;66384;51.052;9.850;2023-02-28T02:58:24;99771.40;;;0.49;61.05
77323;BME280;66384;51.052;9.850;2023-02-28T03:00:57;99776.52;;;0.49;60.99
77323;BME280;66384;51.052;9.850;2023-02-28T03:03:29;99773.92;;;0.49;60.68
77323;BME280;66384;51.052;9.850;2023-02-28T03:06:01;99776.65;;;0.47;60.87
77323;BME280;66384;51.052;9.850;2023-02-28T03:08:35;99777.24;;;0.46;60.61
77323;BME280;66384;51.052;9.850;2023-02-28T03:11:07;99776.02;;;0.45;60.63
77323;BME280;66384;51.052;9.850;2023-02-28T03:13:53;99775.09;;;0.44;60.70
77323;BME280;66384;51.052;9.850;2023-02-28T03:16:31;99773.78;;;0.44;60.45
77323;BME280;66384;51.052;9.850;2023-02-28T03:19:12;99773.89;;;0.44;60.35
77323;BME280;66384;51.052;9.850;2023-02-28T03:21:56;99773.84;;;0.43;60.95
77323;BME280;66384;51.052;9.850;2023-02-28T03:24:34;99771.77;;;0.43;60.64
77323;BME280;66384;51.052;9.850;2023-02-28T03:27:11;99770.02;;;0.42;60.64
77323;BME280;66384;51.052;9.850;2023-02-28T03:29:50;99771.93;;;0.41;60.68
77323;BME280;66384;51.052;9.850;2023-02-28T03:32:26;99772.12;;;0.39;60.59
77323;BME280;66384;51.052;9.850;2023-02-28T03:35:01;99772.89;;;0.38;61.06
77323;BME280;66384;51.052;9.850;2023-02-28T03:37:35;99769.84;;;0.36;60.96
77323;BME280;66384;51.052;9.850;2023-02-28T03:40:10;99766.55;;;0.33;61.12
77323;BME280;66384;51.052;9.850;2023-02-28T03:42:43;99766.80;;;0.32;61.27
77323;BME280;66384;51.052;9.850;2023-02-28T03:45:17;99766.23;;;0.29;61.36
77323;BME280;66384;51.052;9.850;2023-02-28T03:47:53;99764.39;;;0.28;61.28
77323;BME280;66384;51.052;9.850;2023-02-28T03:50:24;99762.26;;;0.24;60.65
77323;BME280;66384;51.052;9.850;2023-02-28T03:52:57;99761.80;;;0.21;60.58
77323;BME280;66384;51.052;9.850;2023-02-28T03:55:32;99763.09;;;0.18;60.38
77323;BME280;66384;51.052;9.850;2023-02-28T03:58:05;99760.22;;;0.16;60.76
77323;BME280;66384;51.052;9.850;2023-02-28T04:00:40;99763.07;;;0.15;60.09
77323;BME280;66384;51.052;9.850;2023-02-28T04:03:11;99761.17;;;0.13;59.77
77323;BME280;66384;51.052;9.850;2023-02-28T04:05:50;99760.02;;;0.08;59.38
77323;BME280;66384;51.052;9.850;2023-02-28T04:08:20;99756.58;;;0.03;59.57
77323;BME280;66384;51.052;9.850;2023-02-28T04:10:54;99763.53;;;-0.01;59.59
77323;BME280;66384;51.052;9.850;2023-02-28T04:13:25;99765.77;;;-0.03;59.53
77323;BME280;66384;51.052;9.850;2023-02-28T04:15:55;99762.83;;;-0.05;59.41
77323;BME280;66384;51.052;9.850;2023-02-28T04:18:24;99759.95;;;-0.07;59.44
77323;BME280;66384;51.052;9.850;2023-02-28T04:20:53;99759.27;;;-0.09;58.76
77323;BME280;66384;51.052;9.850;2023-02-28T04:23:23;99760.68;;;-0.11;58.63
77323;BME280;66384;51.052;9.850;2023-02-28T04:25:56;99760.96;;;-0.11;58.83
77323;BME280;66384;51.052;9.850;2023-02-28T04:28:25;99761.74;;;-0.12;58.55
77323;BME280;66384;51.052;9.850;2023-02-28T04:30:58;99764.61;;;-0.10;58.83
77323;BME280;66384;51.052;9.850;2023-02-28T04:33:27;99770.09;;;-0.07;58.74
77323;BME280;66384;51.052;9.850;2023-02-28T04:36:02;99762.23;;;-0.06;58.20
77323;BME280;66384;51.052;9.850;2023-02-28T04:38:34;99766.27;;;-0.05;58.11
77323;BME280;66384;51.052;9.850;2023-02-28T04:41:04;99767.06;;;-0.03;57.80
77323;BME280;66384;51.052;9.850;2023-02-28T04:43:33;99770.46;;;-0.03;57.21
77323;BME280;66384;51.052;9.850;2023-02-28T04:46:05;99770.61;;;-0.03;57.00
77323;BME280;66384;51.052;9.850;2023-02-28T04:48:36;99771.27;;;-0.04;56.82
77323;BME280;66384;51.052;9.850;2023-02-28T04:51:08;99772.27;;;-0.06;56.33
77323;BME280;66384;51.052;9.850;2023-02-28T04:53:39;99774.16;;;-0.07;56.89
77323;BME280;66384;51.052;9.850;2023-02-28T04:56:10;99773.34;;;-0.07;56.82
77323;BME280;66384;51.052;9.850;2023-02-28T04:58:40;99772.58;;;-0.08;56.95
77323;BME280;66384;51.052;9.850;2023-02-28T05:01:20;99778.42;;;-0.09;56.74
77323;BME280;66384;51.052;9.850;2023-02-28T05:03:50;99777.70;;;-0.11;56.78
77323;BME280;66384;51.052;9.850;2023-02-28T05:06:20;99777.67;;;-0.13;56.77
77323;BME280;66384;51.052;9.850;2023-02-28T05:08:51;99776.23;;;-0.14;56.71
77323;BME280;66384;51.052;9.850;2023-02-28T05:11:23;99778.56;;;-0.15;56.32
77323;BME280;66384;51.052;9.850;2023-02-28T05:13:54;99782.65;;;-0.15;56.42
77323;BME280;66384;51.052;9.850;2023-02-28T05:16:23;99787.83;;;-0.15;55.81
77323;BME280;66384;51.052;9.850;2023-02-28T05:18:53;99785.73;;;-0.16;55.65
77323;BME280;66384;51.052;9.850;2023-02-28T05:21:30;99780.89;;;-0.17;56.00
77323;BME280;66384;51.052;9.850;2023-02-28T05:24:02;99783.50;;;-0.17;55.85
77323;BME280;66384;51.052;9.850;2023-02-28T05:26:35;99780.16;;;-0.16;55.99
77323;BME280;66384;51.052;9.850;2023-02-28T05:29:05;99784.01;;;-0.14;55.64
77323;BME280;66384;51.052;9.850;2023-02-28T05:31:36;99781.33;;;-0.16;55.31
77323;BME280;66384;51.052;9.850;2023-02-28T05:34:05;99785.21;;;-0.20;54.89
77323;BME280;66384;51.052;9.850;2023-02-28T05:36:36;99786.14;;;-0.23;55.13
77323;BME280;66384;51.052;9.850;2023-02-28T05:39:06;99790.91;;;-0.23;55.02
77323;BME280;66384;51.052;9.850;2023-02-28T05:41:41;99795.33;;;-0.23;55.17
77323;BME280;66384;51.052;9.850;2023-02-28T05:44:11;99800.81;;;-0.21;55.05
77323;BME280;66384;51.052;9.850;2023-02-28T05:46:41;99806.95;;;-0.21;55.46
77323;BME280;66384;51.052;9.850;2023-02-28T05:49:10;99805.27;;;-0.21;55.24
77323;BME280;66384;51.052;9.850;2023-02-28T05:51:39;99806.45;;;-0.21;55.31
77323;BME280;66384;51.052;9.850;2023-02-28T05:54:09;99804.40;;;-0.21;55.39
77323;BME280;66384;51.052;9.850;2023-02-28T05:56:38;99804.62;;;-0.23;55.13
77323;BME280;66384;51.052;9.850;2023-02-28T05:59:08;99805.25;;;-0.25;55.35
77323;BME280;66384;51.052;9.850;2023-02-28T06:01:39;99807.91;;;-0.28;55.48
77323;BME280;66384;51.052;9.850;2023-02-28T06:04:10;99804.52;;;-0.30;55.51
77323;BME280;66384;51.052;9.850;2023-02-28T06:06:41;99809.10;;;-0.31;55.80
77323;BME280;66384;51.052;9.850;2023-02-28T06:09:11;99808.99;;;-0.33;55.25
77323;BME280;66384;51.052;9.850;2023-02-28T06:11:41;99809.60;;;-0.34;55.44
77323;BME280;66384;51.052;9.850;2023-02-28T06:14:16;99808.47;;;-0.37;55.42
77323;BME280;66384;51.052;9.850;2023-02-28T06:16:45;99806.61;;;-0.40;55.17
77323;BME280;66384;51.052;9.850;2023-02-28T06:19:14;99810.72;;;-0.44;55.10
77323;BME280;66384;51.052;9.850;2023-02-28T06:21:44;99814.29;;;-0.48;54.99
77323;BME280;66384;51.052;9.850;2023-02-28T06:24:13;99818.89;;;-0.49;55.02
77323;BME280;66384;51.052;9.850;2023-02-28T06:26:42;99818.13;;;-0.48;55.11
77323;BME280;66384;51.052;9.850;2023-02-28T06:29:12;99816.64;;;-0.46;55.08
77323;BME280;66384;51.052;9.850;2023-02-28T06:31:45;99820.98;;;-0.40;55.33
77323;BME280;66384;51.052;9.850;2023-02-28T06:34:15;99824.69;;;-0.35;55.27
77323;BME280;66384;51.052;9.850;2023-02-28T06:36:44;99823.13;;;-0.31;54.93
77323;BME280;66384;51.052;9.850;2023-02-28T06:39:14;99827.39;;;-0.29;54.85
77323;BME280;66384;51.052;9.850;2023-02-28T06:41:43;99825.30;;;-0.28;55.17
77323;BME280;66384;51.052;9.850;2023-02-28T06:44:15;99835.35;;;-0.25;55.25
77323;BME280;66384;51.052;9.850;2023-02-28T06:46:44;99837.44;;;-0.22;54.93
77323;BME280;66384;51.052;9.850;2023-02-28T06:49:14;99840.00;;;-0.22;54.74
77323;BME280;66384;51.052;9.850;2023-02-28T06:51:44;99840.64;;;-0.20;54.97
77323;BME280;66384;51.052;9.850;2023-02-28T06:54:14;99840.95;;;-0.17;55.14
77323;BME280;66384;51.052;9.850;2023-02-28T06:56:43;99839.91;;;-0.15;54.99
77323;BME280;66384;51.052;9.850;2023-02-28T06:59:13;99842.57;;;-0.14;54.82
77323;BME280;66384;51.052;9.850;2023-02-28T07:01:42;99845.98;;;-0.12;55.16
77323;BME280;66384;51.052;9.850;2023-02-28T07:04:11;99846.84;;;-0.12;55.19
77323;BME280;66384;51.052;9.850;2023-02-28T07:06:41;99849.09;;;-0.11;55.61
77323;BME280;66384;51.052;9.850;2023-02-28T07:09:10;99849.48;;;-0.08;56.00
77323;BME280;66384;51.052;9.850;2023-02-28T07:11:40;99852.27;;;-0.06;55.89
77323;BME280;66384;51.052;9.850;2023-02-28T07:14:10;99854.00;;;-0.01;55.80
77323;BME280;66384;51.052;9.850;2023-02-28T07:16:40;99853.10;;;0.03;55.97
77323;BME280;66384;51.052;9.850;2023-02-28T07:19:09;99852.13;;;0.07;55.67
77323;BME280;66384;51.052;9.850;2023-02-28T07:21:38;99853.61;;;0.09;55.86
77323;BME280;66384;51.052;9.850;2023-02-28T07:24:09;99856.70;;;0.13;56.06
77323;BME280;66384;51.052;9.850;2023-02-28T07:26:38;99857.31;;;0.20;55.81
77323;BME280;66384;51.052;9.850;2023-02-28T07:29:07;99858.30;;;0.24;55.47
77323;BME280;66384;51.052;9.850;2023-02-28T07:31:36;99855.09;;;0.26;55.69
77323;BME280;66384;51.052;9.850;2023-02-28T07:34:06;99857.06;;;0.27;55.58
77323;BME280;66384;51.052;9.850;2023-02-28T07:36:35;99861.89;;;0.28;55.55
77323;BME280;66384;51.052;9.850;2023-02-28T07:39:05;99859.43;;;0.29;55.65
77323;BME280;66384;51.052;9.850;2023-02-28T07:41:34;99862.83;;;0.29;55.75
77323;BME280;66384;51.052;9.850;2023-02-28T07:44:07;99858.36;;;0.28;55.40
77323;BME280;66384;51.052;9.850;2023-02-28T07:46:36;99857.05;;;0.29;55.34
77323;BME280;66384;51.052;9.850;2023-02-28T07:49:06;99858.15;;;0.30;54.76
77323;BME280;66384;51.052;9.850;2023-02-28T07:51:36;99858.02;;;0.30;54.78
77323;BME280;66384;51.052;9.850;2023-02-28T07:54:06;99855.35;;;0.33;54.33
77323;BME280;66384;51.052;9.850;2023-02-28T07:56:35;99857.02;;;0.35;54.36
77323;BME280;66384;51.052;9.850;2023-02-28T07:59:04;99854.35;;;0.37;54.50
77323;BME280;66384;51.052;9.850;2023-02-28T08:01:34;99856.42;;;0.39;54.36
77323;BME280;66384;51.052;9.850;2023-02-28T08:04:03;99856.19;;;0.40;54.47
77323;BME280;66384;51.052;9.850;2023-02-28T08:06:32;99857.41;;;0.41;53.46
77323;BME280;66384;51.052;9.850;2023-02-28T08:09:02;99854.30;;;0.42;53.22
77323;BME280;66384;51.052;9.850;2023-02-28T08:11:31;99857.08;;;0.43;52.88
77323;BME280;66384;51.052;9.850;2023-02-28T08:14:00;99855.53;;;0.45;52.98
77323;BME280;66384;51.052;9.850;2023-02-28T08:16:30;99858.05;;;0.49;53.03
77323;BME280;66384;51.052;9.850;2023-02-28T08:18:59;99861.25;;;0.51;52.92
77323;BME280;66384;51.052;9.850;2023-02-28T08:21:28;99860.61;;;0.53;52.73
77323;BME280;66384;51.052;9.850;2023-02-28T08:23:57;99861.46;;;0.57;52.49
77323;BME280;66384;51.052;9.850;2023-02-28T08:26:26;99867.91;;;0.61;52.64
77323;BME280;66384;51.052;9.850;2023-02-28T08:28:56;99864.54;;;0.68;52.38
77323;BME280;66384;51.052;9.850;2023-02-28T08:31:25;99867.61;;;0.78;52.86
77323;BME280;66384;51.052;9.850;2023-02-28T08:33:54;99868.08;;;0.90;52.95
77323;BME280;66384;51.052;9.850;2023-02-28T08:36:27;99867.56;;;1.00;52.88
77323;BME280;66384;51.052;9.850;2023-02-28T08:38:57;99866.37;;;1.04;52.05
77323;BME280;66384;51.052;9.850;2023-02-28T08:41:27;99866.95;;;1.07;52.33
77323;BME280;66384;51.052;9.850;2023-02-28T08:43:56;99864.42;;;1.09;52.02
77323;BME280;66384;51.052;9.850;2023-02-28T08:46:26;99865.05;;;1.06;51.92
77323;BME280;66384;51.052;9.850;2023-02-28T08:48:56;99870.84;;;1.03;52.11
77323;BME280;66384;51.052;9.850;2023-02-28T08:51:28;99874.50;;;1.00;52.33
77323;BME280;66384;51.052;9.850;2023-02-28T08:53:59;99875.75;;;0.97;52.32
77323;BME280;66384;51.052;9.850;2023-02-28T08:56:28;99876.45;;;0.90;52.26
77323;BME280;66384;51.052;9.850;2023-02-28T08:58:58;99878.20;;;0.85;52.03
77323;BME280;66384;51.052;9.850;2023-02-28T09:01:28;99876.08;;;0.80;52.52
77323;BME280;66384;51.052;9.850;2023-02-28T09:03:59;99875.27;;;0.78;52.53
77323;BME280;66384;51.052;9.850;2023-02-28T09:06:29;99875.73;;;0.82;52.82
77323;BME280;66384;51.052;9.850;2023-02-28T09:08:59;99871.13;;;0.87;52.13
77323;BME280;66384;51.052;9.850;2023-02-28T09:11:29;99875.17;;;0.94;51.83
77323;BME280;66384;51.052;9.850;2023-02-28T09:13:59;99864.70;;;1.00;51.81
77323;BME280;66384;51.052;9.850;2023-02-28T09:16:29;99861.55;;;1.09;52.03
77323;BME280;66384;51.052;9.850;2023-02-28T09:18:58;99859.29;;;1.21;51.59
77323;BME280;66384;51.052;9.850;2023-02-28T09:21:27;99862.45;;;1.30;51.40
77323;BME280;66384;51.052;9.850;2023-02-28T09:23:57;99862.15;;;1.42;51.59
77323;BME280;66384;51.052;9.850;2023-02-28T09:26:27;99862.52;;;1.53;51.28
77323;BME280;66384;51.052;9.850;2023-02-28T09:28:57;99857.11;;;1.61;49.62
77323;BME280;66384;51.052;9.850;2023-02-28T09:31:28;99850.13;;;1.67;49.55
77323;BME280;66384;51.052;9.850;2023-02-28T09:33:58;99858.23;;;1.75;48.86
77323;BME280;66384;51.052;9.850;2023-02-28T09:36:28;99861.78;;;1.79;49.21
77323;BME280;66384;51.052;9.850;2023-02-28T09:38:57;99864.08;;;1.83;49.61
77323;BME280;66384;51.052;9.850;2023-02-28T09:41:28;99862.42;;;1.83;49.15
77323;BME280;66384;51.052;9.850;2023-02-28T09:44:05;99866.86;;;1.84;48.92
77323;BME280;66384;51.052;9.850;2023-02-28T09:46:39;99864.85;;;1.84;49.40
77323;BME280;66384;51.052;9.850;2023-02-28T09:49:14;99865.27;;;1.87;49.04
77323;BME280;66384;51.052;9.850;2023-02-28T09:51:53;99861.37;;;1.92;49.09
77323;BME280;66384;51.052;9.850;2023-02-28T09:54:30;99861.83;;;1.99;48.74
77323;BME280;66384;51.052;9.850;2023-02-28T09:57:04;99859.11;;;2.10;48.68
77323;BME280;66384;51.052;9.850;2023-02-28T09:59:42;99858.45;;;2.23;48.07
77323;BME280;66384;51.052;9.850;2023-02-28T10:02:37;99863.55;;;2.35;47.30
77323;BME280;66384;51.052;9.850;2023-02-28T10:05:11;99860.67;;;2.48;46.79
77323;BME280;66384;51.052;9.850;2023-02-28T10:07:53;99857.39;;;2.61;46.15
77323;BME280;66384;51.052;9.850;2023-02-28T10:10:29;99863.93;;;2.73;45.75
77323;BME280;66384;51.052;9.850;2023-02-28T10:13:04;99864.76;;;2.82;45.65
77323;BME280;66384;51.052;9.850;2023-02-28T10:15:35;99861.61;;;2.90;45.67
77323;BME280;66384;51.052;9.850;2023-02-28T10:18:09;99861.45;;;2.96;44.88
77323;BME280;66384;51.052;9.850;2023-02-28T10:20:41;99859.23;;;3.03;44.96
77323;BME280;66384;51.052;9.850;2023-02-28T10:23:14;99864.95;;;3.09;44.24
77323;BME280;66384;51.052;9.850;2023-02-28T10:25:50;99865.32;;;3.12;43.92
77323;BME280;66384;51.052;9.850;2023-02-28T10:28:22;99871.37;;;3.16;43.92
77323;BME280;66384;51.052;9.850;2023-02-28T10:30:55;99866.21;;;3.19;43.91
77323;BME280;66384;51.052;9.850;2023-02-28T10:33:28;99867.80;;;3.25;43.85
77323;BME280;66384;51.052;9.850;2023-02-28T10:35:58;99865.13;;;3.30;44.16
77323;BME280;66384;51.052;9.850;2023-02-28T10:38:33;99868.48;;;3.36;44.52
77323;BME280;66384;51.052;9.850;2023-02-28T10:41:08;99865.80;;;3.44;44.04
77323;BME280;66384;51.052;9.850;2023-02-28T10:43:39;99866.96;;;3.48;43.56
77323;BME280;66384;51.052;9.850;2023-02-28T10:46:15;99867.17;;;3.49;43.90
77323;BME280;66384;51.052;9.850;2023-02-28T10:49:03;99865.29;;;3.44;43.55
77323;BME280;66384;51.052;9.850;2023-02-28T10:51:39;99867.98;;;3.39;43.47
77323;BME280;66384;51.052;9.850;2023-02-28T10:54:16;99864.80;;;3.35;44.01
77323;BME280;66384;51.052;9.850;2023-02-28T10:56:47;99859.16;;;3.32;43.94
77323;BME280;66384;51.052;9.850;2023-02-28T10:59:34;99855.11;;;3.32;43.81
77323;BME280;66384;51.052;9.850;2023-02-28T11:02:32;99855.02;;;3.36;44.57
77323;BME280;66384;51.052;9.850;2023-02-28T11:05:02;99857.02;;;3.45;45.25
77323;BME280;66384;51.052;9.850;2023-02-28T11:07:31;99856.13;;;3.54;45.30
77323;BME280;66384;51.052;9.850;2023-02-28T11:10:01;99854.11;;;3.63;45.11
77323;BME280;66384;51.052;9.850;2023-02-28T11:12:36;99850.98;;;3.70;44.48
77323;BME280;66384;51.052;9.850;2023-02-28T11:15:21;99849.80;;;3.77;44.18
77323;BME280;66384;51.052;9.850;2023-02-28T11:17:57;99842.69;;;3.82;43.81
77323;BME280;66384;51.052;9.850;2023-02-28T11:20:29;99840.62;;;3.86;43.18
77323;BME280;66384;51.052;9.850;2023-02-28T11:23:00;99840.95;;;3.91;44.05
77323;BME280;66384;51.052;9.850;2023-02-28T11:25:33;99837.89;;;3.98;44.00
77323;BME280;66384;51.052;9.850;2023-02-28T11:28:04;99836.39;;;4.06;44.31
77323;BME280;66384;51.052;9.850;2023-02-28T11:30:36;99835.89;;;4.14;43.66
77323;BME280;66384;51.052;9.850;2023-02-28T11:33:28;99834.33;;;4.23;44.18
77323;BME280;66384;51.052;9.850;2023-02-28T11:36:00;99835.10;;;4.34;43.24
77323;BME280;66384;51.052;9.850;2023-02-28T11:38:30;99832.79;;;4.38;43.19
77323;BME280;66384;51.052;9.850;2023-02-28T11:41:15;99835.83;;;4.42;43.49
77323;BME280;66384;51.052;9.850;2023-02-28T11:43:59;99831.65;;;4.46;43.02
77323;BME280;66384;51.052;9.850;2023-02-28T11:46:37;99824.20;;;4.49;43.62
77323;BME280;66384;51.052;9.850;2023-02-28T11:49:21;99826.13;;;4.55;43.09
77323;BME280;66384;51.052;9.850;2023-02-28T11:51:58;99821.50;;;4.57;42.59
77323;BME280;66384;51.052;9.850;2023-02-28T11:54:47;99820.27;;;4.59;42.56
77323;BME280;66384;51.052;9.850;2023-02-28T11:57:35;99819.98;;;4.63;42.85
77323;BME280;66384;51.052;9.850;2023-02-28T12:00:18;99823.98;;;4.66;43.08
77323;BME280;66384;51.052;9.850;2023-02-28T12:03:02;99821.88;;;4.68;42.75
77323;BME280;66384;51.052;9.850;2023-02-28T12:05:41;99820.10;;;4.69;42.83
77323;BME280;66384;51.052;9.850;2023-02-28T12:08:26;99814.44;;;4.73;43.18
77323;BME280;66384;51.052;9.850;2023-02-28T12:11:09;99813.13;;;4.80;42.94
77323;BME280;66384;51.052;9.850;2023-02-28T12:13:48;99809.02;;;4.84;43.07
77323;BME280;66384;51.052;9.850;2023-02-28T12:16:32;99804.21;;;4.86;42.52
77323;BME280;66384;51.052;9.850;2023-02-28T12:19:15;99801.93;;;4.88;42.69
77323;BME280;66384;51.052;9.850;2023-02-28T12:25:20;99810.58;;;4.95;43.17
77323;BME280;66384;51.052;9.850;2023-02-28T12:27:49;99806.17;;;4.98;43.53
77323;BME280;66384;51.052;9.850;2023-02-28T12:30:24;99805.26;;;5.02;43.41
77323;BME280;66384;51.052;9.850;2023-02-28T12:32:56;99803.27;;;5.06;43.36
77323;BME280;66384;51.052;9.850;2023-02-28T12:35:31;99799.78;;;5.07;43.09
77323;BME280;66384;51.052;9.850;2023-02-28T12:38:05;99799.95;;;5.10;43.42
77323;BME280;66384;51.052;9.850;2023-02-28T12:40:45;99796.52;;;5.12;43.16
77323;BME280;66384;51.052;9.850;2023-02-28T12:43:18;99791.02;;;5.14;43.65
77323;BME280;66384;51.052;9.850;2023-02-28T12:45:51;99790.11;;;5.18;43.36
77323;BME280;66384;51.052;9.850;2023-02-28T12:48:27;99786.08;;;5.22;43.48
77323;BME280;66384;51.052;9.850;2023-02-28T12:50:58;99782.02;;;5.25;43.50
77323;BME280;66384;51.052;9.850;2023-02-28T12:53:34;99779.96;;;5.28;43.54
77323;BME280;66384;51.052;9.850;2023-02-28T12:56:14;99772.60;;;5.30;43.02
77323;BME280;66384;51.052;9.850;2023-02-28T12:58:49;99775.42;;;5.34;43.06
77323;BME280;66384;51.052;9.850;2023-02-28T13:01:36;99774.11;;;5.40;42.64
77323;BME280;66384;51.052;9.850;2023-02-28T13:04:36;99776.05;;;5.44;42.67
77323;BME280;66384;51.052;9.850;2023-02-28T13:07:23;99774.52;;;5.49;42.84
77323;BME280;66384;51.052;9.850;2023-02-28T13:10:01;99777.21;;;5.57;42.83
77323;BME280;66384;51.052;9.850;2023-02-28T13:12:31;99774.36;;;5.63;42.54
77323;BME280;66384;51.052;9.850;2023-02-28T13:15:08;99772.55;;;5.67;42.28
77323;BME280;66384;51.052;9.850;2023-02-28T13:17:40;99774.83;;;5.70;42.32
77323;BME280;66384;51.052;9.850;2023-02-28T13:20:18;99770.79;;;5.74;41.92
77323;BME280;66384;51.052;9.850;2023-02-28T13:22:50;99773.77;;;5.72;42.06
77323;BME280;66384;51.052;9.850;2023-02-28T13:28:58;99763.13;;;5.77;41.93
77323;BME280;66384;51.052;9.850;2023-02-28T13:31:28;99763.33;;;5.86;41.90
77323;BME280;66384;51.052;9.850;2023-02-28T13:34:14;99765.58;;;5.97;42.42
77323;BME280;66384;51.052;9.850;2023-02-28T13:36:44;99766.52;;;6.09;42.10
77323;BME280;66384;51.052;9.850;2023-02-28T13:39:48;99763.06;;;6.17;41.29
77323;BME280;66384;51.052;9.850;2023-02-28T13:42:35;99763.55;;;6.25;41.26
77323;BME280;66384;51.052;9.850;2023-02-28T13:45:28;99754.31;;;6.33;40.60
77323;BME280;66384;51.052;9.850;2023-02-28T13:48:00;99752.23;;;6.42;40.91
77323;BME280;66384;51.052;9.850;2023-02-28T13:50:34;99755.65;;;6.50;40.94
77323;BME280;66384;51.052;9.850;2023-02-28T13:56:05;99750.62;;;6.67;41.18